Time;durP1;ratioP1;P1;durP2;ratioP2;P2;SDS_P1;SDS_P2;PMS_P1;PMS_P2;Temp;Humidity;BMP_temperature;BMP_pressure;BME280_temperature;BME280_humidity;BME280_pressure;Samples;Min_cycle;Max_cycle;Signal;HPM_P1;HPM_P2
2022/03/18 00:00:23;;;;;;;8.20;5.97;;;;;;;5.54;56.26;103622.56;2107421;28;20260;-68
2022/03/18 00:01:23;;;;;;;8.60;6.15;;;;;;;5.57;57.05;103624.66;2107161;28;20606;-68
2022/03/18 00:02:25;;;;;;;8.60;5.80;;;;;;;5.57;56.97;103618.34;2107302;28;20184;-68
2022/03/18 00:03:26;;;;;;;8.07;6.00;;;;;;;5.58;56.59;103626.28;2107406;28;20260;-68
2022/03/18 00:04:26;;;;;;;9.90;6.23;;;;;;;5.60;57.18;103629.50;2107219;28;20673;-68
2022/03/18 00:05:27;;;;;;;8.20;5.97;;;;;;;5.61;56.70;103630.31;2107257;28;20188;-68
2022/03/18 00:06:28;;;;;;;8.40;6.40;;;;;;;5.61;56.31;103619.31;2107338;28;20181;-68
2022/03/18 00:07:29;;;;;;;10.03;6.57;;;;;;;5.61;56.21;103631.13;2107264;28;20184;-68
2022/03/18 00:08:29;;;;;;;8.33;6.43;;;;;;;5.63;55.46;103626.09;2107219;28;20413;-68
2022/03/18 00:09:30;;;;;;;10.60;6.30;;;;;;;5.61;56.31;103624.81;2107255;28;20641;-68
2022/03/18 00:10:31;;;;;;;10.13;6.30;;;;;;;5.65;55.92;103629.31;2107301;28;20721;-68
2022/03/18 00:11:32;;;;;;;10.75;6.40;;;;;;;5.63;55.71;103620.59;2106532;28;20207;-68
2022/03/18 00:12:32;;;;;;;7.10;6.00;;;;;;;5.65;56.52;103623.03;2106579;28;20182;-68
2022/03/18 00:13:33;;;;;;;9.17;6.40;;;;;;;5.64;56.71;103624.16;2107205;28;20654;-68
2022/03/18 00:14:33;;;;;;;9.43;6.50;;;;;;;5.66;56.45;103636.47;2107296;28;20195;-68
2022/03/18 00:15:34;;;;;;;10.87;6.10;;;;;;;5.65;56.23;103628.53;2107194;28;20205;-68
2022/03/18 00:16:35;;;;;;;8.63;6.00;;;;;;;5.64;56.24;103624.97;2107241;28;20192;-68
2022/03/18 00:17:36;;;;;;;8.63;6.60;;;;;;;4.88;55.96;103504.88;2107228;28;20622;-68
2022/03/18 00:18:36;;;;;;;8.90;6.20;;;;;;;5.70;55.58;103629.16;2107292;28;20639;-68
2022/03/18 00:19:38;;;;;;;8.27;6.43;;;;;;;5.67;56.05;103626.25;2107173;28;20603;-68
2022/03/18 00:20:39;;;;;;;8.82;6.80;;;;;;;4.29;56.21;103401.34;2106941;28;20181;-68
2022/03/18 00:21:40;;;;;;;9.40;6.90;;;;;;;5.72;55.84;103624.16;2107155;28;20160;-68
2022/03/18 00:22:42;;;;;;;8.03;6.17;;;;;;;5.73;56.83;103624.94;2107078;28;20665;-68
2022/03/18 00:23:42;;;;;;;10.20;6.38;;;;;;;5.48;57.78;103582.59;2107147;28;20228;-68
2022/03/18 00:24:43;;;;;;;9.60;6.60;;;;;;;5.73;56.69;103625.75;2107169;28;20174;-68
2022/03/18 00:25:43;;;;;;;8.63;6.33;;;;;;;5.70;56.90;103626.41;2107132;28;20208;-68
2022/03/18 00:26:44;;;;;;;10.17;6.47;;;;;;;5.68;55.67;103628.69;2107164;28;20198;-68
2022/03/18 00:27:45;;;;;;;8.17;5.90;;;;;;;5.63;56.14;103628.03;2107119;28;20231;-68
2022/03/18 00:28:45;;;;;;;8.43;6.20;;;;;;;5.63;55.45;103634.34;2107144;28;20661;-68
2022/03/18 00:29:46;;;;;;;9.60;6.73;;;;;;;5.58;55.63;103619.94;2106400;28;20189;-68
2022/03/18 00:30:48;;;;;;;9.67;6.10;;;;;;;5.66;56.17;103630.16;2106573;28;20176;-68
2022/03/18 00:31:49;;;;;;;8.07;6.10;;;;;;;5.64;56.40;103627.72;2107220;28;20252;-68
2022/03/18 00:32:51;;;;;;;10.47;6.53;;;;;;;5.64;56.31;103626.94;2107043;28;20574;-68
2022/03/18 00:33:51;;;;;;;10.82;5.93;;;;;;;5.64;56.12;103632.44;2107050;28;20196;-68
2022/03/18 00:34:52;;;;;;;8.60;6.17;;;;;;;5.66;56.74;103625.47;2107165;28;20172;-68
2022/03/18 00:35:52;;;;;;;10.33;6.30;;;;;;;4.37;56.34;103425.22;2107096;28;20725;-68
2022/03/18 00:36:54;;;;;;;8.30;6.20;;;;;;;5.62;56.65;103635.50;2106961;28;20183;-68
2022/03/18 00:37:55;;;;;;;8.93;6.07;;;;;;;5.57;56.14;103627.41;2106394;28;20621;-68
2022/03/18 00:38:55;;;;;;;8.13;5.97;;;;;;;5.40;55.99;103604.63;2106982;28;20173;-68
2022/03/18 00:39:56;;;;;;;8.97;6.30;;;;;;;5.51;56.12;103625.97;2107051;28;20172;-68
2022/03/18 00:40:56;;;;;;;9.03;6.03;;;;;;;5.36;55.83;103609.97;2107072;28;20177;-68
2022/03/18 00:41:56;;;;;;;8.67;6.10;;;;;;;5.43;56.09;103626.00;2106282;28;20759;-68
2022/03/18 00:42:57;;;;;;;8.87;6.50;;;;;;;5.37;56.18;103621.75;2106284;28;20173;-68
2022/03/18 00:43:58;;;;;;;10.43;6.50;;;;;;;5.34;55.98;103628.72;2106831;28;20254;-68
2022/03/18 00:44:59;;;;;;;8.67;6.37;;;;;;;4.92;57.14;103565.53;2107024;28;20182;-68
2022/03/18 00:46:00;;;;;;;10.15;6.57;;;;;;;5.35;56.35;103629.53;2107025;28;20167;-68
2022/03/18 00:47:00;;;;;;;8.67;6.43;;;;;;;5.34;56.94;103636.97;2107031;28;20227;-68
2022/03/18 00:52:05;;;;;;;8.95;6.18;;;;;;;5.42;57.42;103629.84;2107047;28;20189;-68
2022/03/18 00:53:06;;;;;;;10.23;6.75;;;;;;;4.96;56.63;103566.47;2106879;28;20275;-68
2022/03/18 00:54:06;;;;;;;9.07;6.70;;;;;;;5.32;56.63;103620.00;2106947;28;20172;-68
2022/03/18 00:55:07;;;;;;;9.47;6.77;;;;;;;5.37;57.08;103638.25;2106851;28;20656;-68
2022/03/18 00:56:08;;;;;;;9.10;6.70;;;;;;;5.34;56.95;103636.97;2106789;28;20195;-68
2022/03/18 00:57:10;;;;;;;8.20;6.27;;;;;;;4.89;57.78;103574.41;2106904;28;20406;-68
2022/03/18 00:58:11;;;;;;;9.65;6.57;;;;;;;5.19;57.66;103617.41;2106841;28;20638;-68
2022/03/18 00:59:11;;;;;;;7.90;6.10;;;;;;;5.33;57.05;103637.31;2106976;28;20594;-68
2022/03/18 01:00:12;;;;;;;8.50;6.40;;;;;;;5.40;57.33;103638.44;2106869;28;20172;-68
2022/03/18 01:01:13;;;;;;;8.70;6.53;;;;;;;5.40;57.14;103626.63;2107024;28;20173;-68
2022/03/18 01:02:14;;;;;;;8.90;6.50;;;;;;;5.49;56.83;103635.69;2106882;28;20176;-68
2022/03/18 01:03:15;;;;;;;8.87;6.27;;;;;;;5.31;57.10;103610.13;2106774;28;20199;-68
2022/03/18 01:04:16;;;;;;;9.55;6.57;;;;;;;5.38;56.86;103634.41;2106763;28;20414;-68
2022/03/18 01:05:17;;;;;;;10.37;6.37;;;;;;;5.17;57.17;103615.00;2106927;28;20606;-67
2022/03/18 01:06:17;;;;;;;12.45;6.70;;;;;;;5.36;57.42;103628.41;2106763;28;20738;-68
2022/03/18 01:07:18;;;;;;;9.10;6.20;;;;;;;5.00;56.44;103583.94;2106888;28;20637;-68
2022/03/18 01:08:19;;;;;;;8.87;6.27;;;;;;;5.40;56.90;103634.88;2106710;28;20191;-68
2022/03/18 01:09:21;;;;;;;11.03;6.87;;;;;;;4.08;56.48;103418.75;2106856;28;20245;-68
2022/03/18 01:10:22;;;;;;;9.73;6.60;;;;;;;5.34;57.37;103631.47;2106864;28;20175;-68
2022/03/18 01:11:22;;;;;;;9.30;6.17;;;;;;;4.80;57.36;103592.81;2106736;28;20172;-68
2022/03/18 01:12:24;;;;;;;9.23;6.67;;;;;;;5.30;57.45;103632.47;2106126;28;20176;-68
2022/03/18 01:13:24;;;;;;;8.23;6.47;;;;;;;5.26;57.46;103632.31;2098192;28;20710;-68
2022/03/18 01:14:26;;;;;;;9.13;6.77;;;;;;;5.23;57.78;103637.66;2098479;28;20538;-68
2022/03/18 01:15:26;;;;;;;9.07;6.63;;;;;;;5.05;57.26;103645.06;2098539;28;20654;-68
2022/03/18 01:16:27;;;;;;;10.80;6.50;;;;;;;4.66;57.76;103649.88;2098335;28;20606;-67
2022/03/18 01:17:27;;;;;;;7.50;6.37;;;;;;;4.54;59.28;103625.75;2098202;28;20565;-68
2022/03/18 01:18:28;;;;;;;10.60;6.73;;;;;;;4.79;58.75;103638.75;2098398;28;20177;-68
2022/03/18 01:19:28;;;;;;;9.50;6.87;;;;;;;4.86;59.21;103639.06;2098368;28;20541;-68
2022/03/18 01:20:29;;;;;;;8.47;6.60;;;;;;;4.90;59.52;103636.47;2098211;28;20177;-68
2022/03/18 01:21:30;;;;;;;12.77;7.00;;;;;;;4.90;59.02;103636.47;2098369;28;20167;-68
2022/03/18 01:22:31;;;;;;;10.07;6.70;;;;;;;4.93;58.51;103641.34;2098281;28;20263;-68
2022/03/18 01:23:31;;;;;;;9.07;6.73;;;;;;;4.54;58.31;103564.50;2098352;28;20184;-68
2022/03/18 01:24:32;;;;;;;8.63;6.33;;;;;;;4.99;58.85;103640.88;2098302;28;20192;-68
2022/03/18 01:25:35;;;;;;;9.23;6.97;;;;;;;4.18;59.03;103493.38;2098264;28;20179;-68
2022/03/18 01:26:36;;;;;;;9.77;6.55;;;;;;;5.05;59.22;103625.00;2098257;28;20166;-68
2022/03/18 01:27:36;;;;;;;10.07;6.80;;;;;;;4.48;58.93;103527.34;2097701;28;20184;-68
2022/03/18 01:28:37;;;;;;;10.30;6.93;;;;;;;5.12;58.13;103617.09;2097748;28;20252;-68
2022/03/18 01:29:37;;;;;;;9.70;7.10;;;;;;;4.84;58.45;103569.88;2098284;28;20178;-68
2022/03/18 01:30:38;;;;;;;8.33;6.53;;;;;;;5.05;58.60;103623.09;2098291;28;20654;-67
2022/03/18 01:31:38;;;;;;;10.40;7.10;;;;;;;4.22;58.44;103499.03;2098316;28;20565;-68
2022/03/18 01:32:39;;;;;;;8.33;6.43;;;;;;;4.97;58.32;103612.09;2098119;28;20189;-68
2022/03/18 01:33:39;;;;;;;11.53;7.13;;;;;;;4.91;58.63;103591.38;2098124;28;20238;-68
2022/03/18 01:34:40;;;;;;;10.47;6.80;;;;;;;5.17;59.16;103627.91;2098142;28;20181;-68
2022/03/18 01:35:41;;;;;;;9.87;6.83;;;;;;;5.14;59.06;103623.09;2098241;28;20176;-68
2022/03/18 01:36:41;;;;;;;8.47;6.40;;;;;;;5.14;58.23;103623.88;2098303;28;20561;-68
2022/03/18 01:37:42;;;;;;;9.73;6.07;;;;;;;5.03;58.07;103610.78;2098271;28;20173;-68
2022/03/18 01:38:42;;;;;;;9.50;6.30;;;;;;;4.67;57.63;103549.84;2098252;28;20705;-68
2022/03/18 01:39:43;;;;;;;7.73;6.37;;;;;;;4.96;58.04;103593.94;2098195;28;20602;-68
2022/03/18 01:40:43;;;;;;;9.77;6.43;;;;;;;5.13;58.23;103621.47;2098271;28;20571;-68
2022/03/18 01:41:44;;;;;;;9.07;6.57;;;;;;;4.71;57.85;103557.09;2098055;28;20566;-68
2022/03/18 01:42:45;;;;;;;9.47;6.27;;;;;;;5.09;58.09;103624.06;2098222;28;20191;-68
2022/03/18 01:43:46;;;;;;;9.70;6.60;;;;;;;5.14;58.49;103626.63;2098564;28;20211;-68
2022/03/18 01:44:47;;;;;;;10.93;6.68;;;;;;;3.07;58.38;103294.81;2106433;28;20177;-68
2022/03/18 01:45:49;;;;;;;8.90;6.75;;;;;;;5.16;58.28;103638.13;2106630;28;20184;-68
2022/03/18 01:46:49;;;;;;;8.82;7.10;;;;;;;5.21;58.33;103645.38;2106485;28;20700;-68
2022/03/18 01:47:50;;;;;;;8.87;6.20;;;;;;;5.21;58.93;103643.47;2106345;28;20664;-68
2022/03/18 01:48:51;;;;;;;10.03;6.53;;;;;;;5.17;58.64;103630.66;2106553;28;20255;-67
2022/03/18 01:49:51;;;;;;;7.77;6.00;;;;;;;5.20;58.15;103644.59;2105749;28;20180;-68
2022/03/18 01:50:52;;;;;;;8.17;6.30;;;;;;;5.23;57.95;103651.38;2106451;28;20172;-68
2022/03/18 01:51:53;;;;;;;8.80;6.40;;;;;;;4.92;57.06;103617.75;2106433;28;20172;-68
2022/03/18 01:52:54;;;;;;;8.60;6.03;;;;;;;5.25;57.50;103644.44;2106365;28;20198;-68
2022/03/18 01:54:44;;;;;;;9.20;6.63;;;;;;;5.22;58.24;103647.81;2106379;28;20431;-68
2022/03/18 01:55:16;;;;;;;11.02;6.60;;;;;;;5.22;58.17;103647.81;2106336;28;20246;-68
2022/03/18 01:56:16;;;;;;;10.25;6.70;;;;;;;5.21;57.24;103645.38;2106518;28;20624;-68
2022/03/18 01:57:20;;;;;;;9.37;6.37;;;;;;;5.14;57.57;103637.63;2106424;28;20534;-68
2022/03/18 01:58:24;;;;;;;8.77;6.45;;;;;;;4.43;57.38;103522.81;2106359;28;20177;-68
2022/03/18 01:59:24;;;;;;;9.02;6.53;;;;;;;5.15;57.39;103643.94;2106459;28;20239;-68
2022/03/18 02:00:25;;;;;;;9.23;6.23;;;;;;;5.14;57.03;103647.81;2106472;28;20172;-68
2022/03/18 02:01:26;;;;;;;8.75;6.30;;;;;;;5.14;57.33;103647.81;2106393;28;20172;-68
2022/03/18 02:02:27;;;;;;;9.43;6.67;;;;;;;5.08;57.31;103649.13;2106432;28;20207;-68
2022/03/18 02:03:27;;;;;;;8.70;6.33;;;;;;;5.07;57.99;103648.28;2106269;28;20617;-68
2022/03/18 02:04:28;;;;;;;10.07;7.07;;;;;;;5.03;57.56;103652.81;2106311;28;20202;-68
2022/03/18 02:05:28;;;;;;;8.50;6.60;;;;;;;5.01;58.52;103654.25;2106325;28;20258;-68
2022/03/18 02:06:29;;;;;;;8.80;5.87;;;;;;;3.54;58.04;103428.31;2106441;28;20210;-68
2022/03/18 02:07:29;;;;;;;8.13;6.20;;;;;;;4.94;57.70;103649.28;2106377;28;20177;-68
2022/03/18 02:08:31;;;;;;;9.73;6.53;;;;;;;4.85;58.37;103639.38;2106356;28;20255;-68
2022/03/18 02:09:31;;;;;;;8.95;6.47;;;;;;;4.89;58.53;103645.84;2106394;28;20169;-68
2022/03/18 02:10:32;;;;;;;8.83;6.70;;;;;;;4.75;57.75;103625.94;2106292;28;20183;-68
2022/03/18 02:11:33;;;;;;;8.65;6.22;;;;;;;4.82;57.85;103643.56;2106387;28;20175;-68
2022/03/18 02:12:35;;;;;;;9.00;6.33;;;;;;;4.76;58.58;103646.78;2105493;28;20269;-68
2022/03/18 02:13:36;;;;;;;11.32;7.30;;;;;;;4.74;58.24;103647.13;2097918;28;20561;-68
2022/03/18 02:14:40;;;;;;;9.63;6.80;;;;;;;4.03;58.62;103545.97;2097304;28;20176;-68
2022/03/18 02:15:41;;;;;;;7.93;6.38;;;;;;;4.70;58.37;103645.31;2097399;28;20173;-68
2022/03/18 02:16:41;;;;;;;8.57;6.57;;;;;;;3.13;59.48;103410.59;2097947;28;20674;-68
2022/03/18 02:17:42;;;;;;;10.13;6.90;;;;;;;4.63;58.72;103648.56;2097934;28;20173;-68
2022/03/18 02:18:42;;;;;;;9.63;7.00;;;;;;;4.60;58.88;103653.88;2098053;28;20188;-68
2022/03/18 02:19:44;;;;;;;9.07;6.53;;;;;;;4.58;59.23;103651.47;2097874;28;20192;-68
2022/03/18 02:20:45;;;;;;;9.38;6.80;;;;;;;4.60;59.43;103653.88;2097901;28;20234;-68
2022/03/18 02:21:48;;;;;;;8.87;6.77;;;;;;;4.57;58.93;103663.56;2097905;28;20252;-68
2022/03/18 02:22:49;;;;;;;10.00;6.50;;;;;;;4.53;58.33;103659.03;2097789;28;20252;-67
2022/03/18 02:23:50;;;;;;;10.43;6.77;;;;;;;4.47;58.83;103646.56;2097851;28;20207;-68
2022/03/18 02:24:52;;;;;;;8.70;6.73;;;;;;;4.53;58.10;103662.59;2097922;28;20700;-68
2022/03/18 02:25:53;;;;;;;8.60;6.53;;;;;;;3.10;58.52;103438.59;2097962;28;20569;-68
2022/03/18 02:26:54;;;;;;;8.20;6.20;;;;;;;4.51;58.53;103659.34;2097993;28;20206;-68
2022/03/18 02:28:03;;;;;;;9.98;6.55;;;;;;;4.29;59.35;103631.16;2097862;28;20180;-68
2022/03/18 02:29:04;;;;;;;8.93;6.45;;;;;;;4.50;58.69;103660.47;2097800;28;20168;-68
2022/03/18 02:30:09;;;;;;;10.43;6.70;;;;;;;4.50;58.65;103668.72;2097983;28;20179;-68
2022/03/18 02:31:10;;;;;;;8.82;6.65;;;;;;;4.51;58.53;103656.59;2097845;28;20233;-68
2022/03/18 02:32:13;;;;;;;8.03;5.60;;;;;;;4.53;58.49;103659.03;2097937;28;20228;-68
2022/03/18 02:33:14;;;;;;;9.93;6.32;;;;;;;4.55;58.02;103667.75;2097735;28;20689;-68
2022/03/18 02:34:16;;;;;;;9.83;6.70;;;;;;;4.50;57.63;103663.22;2097779;28;20565;-68
2022/03/18 02:35:16;;;;;;;8.82;6.38;;;;;;;4.52;57.26;103663.69;2097898;28;20655;-68
2022/03/18 02:36:17;;;;;;;8.47;6.17;;;;;;;4.50;58.63;103663.22;2097709;28;20540;-68
2022/03/18 02:37:17;;;;;;;9.50;6.70;;;;;;;4.48;58.31;103661.91;2097834;28;20202;-68
2022/03/18 02:38:18;;;;;;;10.80;6.53;;;;;;;4.46;57.51;103667.72;2097864;28;20291;-68
2022/03/18 02:39:18;;;;;;;11.73;6.93;;;;;;;4.47;58.11;103666.59;2097929;28;20176;-68
2022/03/18 02:40:19;;;;;;;13.50;6.90;;;;;;;4.46;57.88;103659.47;2097825;28;20249;-68
2022/03/18 02:41:19;;;;;;;9.47;6.20;;;;;;;4.44;57.50;103661.75;2097864;28;20211;-68
2022/03/18 02:42:20;;;;;;;9.70;6.20;;;;;;;4.29;57.65;103634.72;2097810;28;20605;-68
2022/03/18 02:43:20;;;;;;;10.07;6.57;;;;;;;4.26;58.08;103634.53;2097846;28;20615;-68
2022/03/18 02:44:21;;;;;;;8.60;6.50;;;;;;;4.42;58.39;103674.97;2097756;28;20253;-68
2022/03/18 02:45:22;;;;;;;10.17;6.50;;;;;;;4.38;58.03;103653.97;2097836;28;20188;-68
2022/03/18 02:46:22;;;;;;;9.13;6.30;;;;;;;4.38;57.96;103662.19;2097870;28;20235;-68
2022/03/18 02:47:24;;;;;;;10.30;7.17;;;;;;;4.37;57.81;103663.34;2097945;28;20192;-68
2022/03/18 02:48:24;;;;;;;9.95;6.28;;;;;;;4.34;56.49;103670.25;2097770;28;20179;-68
2022/03/18 02:49:25;;;;;;;9.77;6.40;;;;;;;4.29;56.97;103664.09;2097880;28;20181;-68
2022/03/18 02:50:26;;;;;;;8.73;6.00;;;;;;;4.30;57.25;103662.97;2097861;28;20211;-68
2022/03/18 02:51:27;;;;;;;9.07;6.40;;;;;;;4.16;57.65;103648.56;2097821;28;20176;-68
2022/03/18 02:52:29;;;;;;;8.68;6.25;;;;;;;4.31;58.21;103665.41;2097851;28;20175;-68
2022/03/18 02:53:29;;;;;;;9.80;6.32;;;;;;;4.32;57.77;103674.47;2097674;28;20287;-68
2022/03/18 02:54:29;;;;;;;9.70;6.47;;;;;;;4.31;58.91;103673.63;2097709;28;20647;-68
2022/03/18 02:55:30;;;;;;;9.00;6.60;;;;;;;4.33;57.42;103665.91;2097823;28;20180;-68
2022/03/18 02:56:31;;;;;;;9.20;6.37;;;;;;;4.33;58.51;103678.81;2097715;28;20183;-68
2022/03/18 02:57:32;;;;;;;9.60;6.88;;;;;;;3.99;58.12;103646.53;2097675;28;20706;-68
2022/03/18 02:58:32;;;;;;;8.43;6.40;;;;;;;4.33;57.80;103676.88;2097776;28;20599;-68
2022/03/18 02:59:33;;;;;;;11.33;6.70;;;;;;;4.38;57.82;103686.91;2097234;28;20185;-68
2022/03/18 03:00:34;;;;;;;11.23;6.90;;;;;;;4.26;57.60;103668.28;2097177;28;20175;-68
2022/03/18 03:01:34;;;;;;;8.53;6.47;;;;;;;4.35;58.19;103682.88;2098741;28;20183;-68
2022/03/18 03:02:35;;;;;;;10.87;6.80;;;;;;;4.27;58.41;103675.38;2099417;28;20656;-68
2022/03/18 03:03:35;;;;;;;8.03;6.27;;;;;;;4.38;58.41;103698.72;2099383;28;20185;-68
2022/03/18 03:07:58;;;;;;;10.47;6.97;;;;;;;4.39;57.23;103692.09;2099339;28;20176;-68
2022/03/18 03:08:35;;;;;;;10.52;7.15;;;;;;;4.36;58.08;103684.47;2099503;28;20616;-68
2022/03/18 03:09:35;;;;;;;10.13;6.60;;;;;;;4.27;58.00;103688.31;2098632;28;20184;-68
2022/03/18 03:10:36;;;;;;;9.20;7.13;;;;;;;4.24;57.77;103698.00;2098729;28;20618;-68
2022/03/18 03:11:36;;;;;;;8.53;6.60;;;;;;;4.19;57.98;103700.88;2099289;28;20176;-68
2022/03/18 03:12:39;;;;;;;9.23;6.67;;;;;;;4.20;58.39;103699.75;2099270;28;20179;-67
2022/03/18 03:13:40;;;;;;;8.85;6.43;;;;;;;4.15;57.46;103710.88;2099345;28;20557;-68
2022/03/18 03:14:40;;;;;;;8.70;6.57;;;;;;;4.01;57.44;103709.34;2099283;28;20262;-68
2022/03/18 03:15:41;;;;;;;9.63;6.60;;;;;;;4.03;58.15;103713.38;2099410;28;20180;-68
2022/03/18 03:16:42;;;;;;;10.27;6.63;;;;;;;4.04;58.08;103709.50;2099237;28;20203;-68
2022/03/18 03:17:42;;;;;;;9.25;6.78;;;;;;;3.91;57.46;103682.16;2099293;28;20186;-68
2022/03/18 03:18:43;;;;;;;9.10;7.03;;;;;;;4.09;59.28;103708.56;2099339;28;20180;-67
2022/03/18 03:19:43;;;;;;;8.60;6.90;;;;;;;4.02;59.47;103697.22;2100091;28;20180;-68
2022/03/18 03:20:44;;;;;;;11.47;7.43;;;;;;;4.10;59.15;103716.47;2107458;28;20737;-68
2022/03/18 03:21:44;;;;;;;10.90;7.03;;;;;;;3.86;58.70;103668.56;2107670;28;20178;-67
2022/03/18 03:22:45;;;;;;;11.20;7.10;;;;;;;4.08;58.14;103712.44;2107669;28;20176;-68
2022/03/18 03:23:45;;;;;;;10.47;7.03;;;;;;;4.01;57.26;103717.56;2107572;28;20175;-68
2022/03/18 03:24:47;;;;;;;10.20;6.70;;;;;;;2.62;57.04;103508.84;2107618;28;20257;-68
2022/03/18 03:25:48;;;;;;;11.15;7.40;;;;;;;3.89;59.20;103706.34;2107696;28;20175;-68
2022/03/18 03:26:49;;;;;;;10.73;8.25;;;;;;;3.98;58.68;103707.19;2107646;28;20199;-68
2022/03/18 03:27:56;;;;;;;10.97;8.00;;;;;;;4.12;58.27;103722.50;2107450;28;20179;-68
2022/03/18 03:28:56;;;;;;;10.45;7.68;;;;;;;4.17;59.17;103727.03;2107653;28;20259;-68
2022/03/18 03:30:03;;;;;;;11.87;8.17;;;;;;;4.14;58.95;103702.94;2106971;28;20175;-68
2022/03/18 03:31:04;;;;;;;11.68;8.38;;;;;;;4.29;57.21;103735.47;2099400;28;20176;-68
2022/03/18 03:32:05;;;;;;;13.23;8.05;;;;;;;4.32;57.24;103716.44;2106857;28;20240;-68
2022/03/18 03:33:06;;;;;;;10.97;7.83;;;;;;;4.22;57.81;103710.41;2107328;28;20206;-68
2022/03/18 03:34:06;;;;;;;12.57;7.87;;;;;;;4.39;58.24;103730.53;2107399;28;20193;-68
2022/03/18 03:35:08;;;;;;;12.27;7.97;;;;;;;4.33;55.89;103740.03;2107683;28;20250;-67
2022/03/18 03:36:09;;;;;;;11.27;8.05;;;;;;;4.35;55.86;103736.97;2107464;28;20167;-68
2022/03/18 03:37:09;;;;;;;9.63;7.57;;;;;;;4.37;56.67;103735.50;2107479;28;20178;-68
2022/03/18 03:38:13;;;;;;;11.00;7.87;;;;;;;4.43;58.03;103738.94;2106816;28;20171;-68
2022/03/18 03:39:13;;;;;;;11.23;8.18;;;;;;;4.40;56.15;103739.56;2106962;28;20675;-67
2022/03/18 03:40:14;;;;;;;11.57;8.60;;;;;;;4.42;56.65;103740.88;2107472;28;20200;-68
2022/03/18 03:41:15;;;;;;;10.77;7.60;;;;;;;4.36;56.07;103739.41;2107419;28;20653;-68
2022/03/18 03:42:15;;;;;;;11.33;7.77;;;;;;;4.15;56.13;103705.38;2107368;28;20175;-68
2022/03/18 03:43:16;;;;;;;10.70;7.33;;;;;;;3.44;56.12;103584.88;2107495;28;20645;-68
2022/03/18 03:44:16;;;;;;;11.00;8.20;;;;;;;3.87;56.71;103657.28;2102378;28;20718;-68
2022/03/18 03:45:17;;;;;;;10.23;7.67;;;;;;;4.14;57.30;103701.00;2099132;28;20214;-67
2022/03/18 03:46:17;;;;;;;10.93;8.50;;;;;;;4.30;54.77;103750.81;2099032;28;20222;-67
2022/03/18 03:47:18;;;;;;;11.60;8.30;;;;;;;4.08;54.93;103735.22;2099064;28;20177;-68
2022/03/18 03:48:18;;;;;;;10.30;7.70;;;;;;;4.12;55.40;103738.97;2098312;28;20172;-68
2022/03/18 03:49:19;;;;;;;13.10;8.00;;;;;;;3.93;55.33;103710.06;2098447;28;20203;-68
2022/03/18 03:50:19;;;;;;;11.63;8.23;;;;;;;4.20;56.61;103743.66;2099029;28;20204;-68
2022/03/18 03:51:20;;;;;;;11.80;7.90;;;;;;;4.19;56.92;103730.25;2099090;28;20203;-68
2022/03/18 03:52:20;;;;;;;10.47;7.63;;;;;;;4.26;56.48;103741.63;2099151;28;20186;-68
2022/03/18 03:53:21;;;;;;;10.20;7.87;;;;;;;4.24;57.10;103746.59;2098986;28;20681;-68
2022/03/18 03:54:21;;;;;;;10.70;8.30;;;;;;;3.88;56.55;103691.00;2098692;28;20575;-68
2022/03/18 03:55:22;;;;;;;11.03;8.17;;;;;;;4.28;56.50;103751.16;2098963;28;20661;-68
2022/03/18 03:56:22;;;;;;;12.93;9.83;;;;;;;4.32;57.47;103748.59;2099042;28;20672;-68
2022/03/18 03:57:23;;;;;;;13.67;9.23;;;;;;;4.29;56.47;103746.47;2098973;28;20257;-68
2022/03/18 03:58:23;;;;;;;11.57;8.27;;;;;;;4.29;56.71;103746.47;2098879;28;20641;-68
2022/03/18 03:59:24;;;;;;;12.10;8.53;;;;;;;4.29;55.85;103750.03;2098904;28;20186;-68
2022/03/18 04:00:24;;;;;;;11.83;8.30;;;;;;;4.20;55.75;103743.66;2099438;28;20183;-68
2022/03/18 04:01:25;;;;;;;10.07;7.97;;;;;;;4.26;55.67;103750.66;2107177;28;20187;-68
2022/03/18 04:02:27;;;;;;;12.27;8.13;;;;;;;4.22;55.78;103757.91;2107278;28;20558;-68
2022/03/18 04:03:28;;;;;;;10.95;8.07;;;;;;;4.22;56.11;103763.41;2106370;28;20250;-68
2022/03/18 04:04:29;;;;;;;11.00;7.87;;;;;;;4.22;56.35;103763.41;2106558;28;20270;-68
2022/03/18 04:05:34;;;;;;;11.60;7.80;;;;;;;4.22;55.51;103768.06;2107316;28;20178;-68
2022/03/18 04:06:34;;;;;;;12.13;8.07;;;;;;;4.13;56.38;103753.47;2107212;28;20417;-68
2022/03/18 04:07:36;;;;;;;11.83;8.33;;;;;;;4.13;55.43;103753.47;2107076;28;20175;-68
2022/03/18 04:08:37;;;;;;;12.02;9.00;;;;;;;4.08;55.56;103773.63;2107164;28;20637;-68
2022/03/18 04:09:37;;;;;;;10.20;7.80;;;;;;;4.06;55.02;103788.78;2107147;28;20263;-68
2022/03/18 04:10:42;;;;;;;10.57;8.40;;;;;;;3.45;55.05;103678.91;2107260;28;20187;-68
2022/03/18 04:11:42;;;;;;;12.07;8.63;;;;;;;4.03;57.21;103771.00;2107198;28;20556;-68
2022/03/18 04:12:43;;;;;;;12.07;8.37;;;;;;;4.04;56.72;103780.88;2104309;28;20202;-68
2022/03/18 04:13:43;;;;;;;11.50;7.70;;;;;;;3.05;58.42;103623.13;2098470;28;20203;-68
2022/03/18 04:14:44;;;;;;;9.10;8.03;;;;;;;4.06;57.97;103780.56;2098823;28;20218;-68
2022/03/18 04:15:44;;;;;;;11.80;8.47;;;;;;;4.06;57.32;103788.78;2098682;28;20233;-68
2022/03/18 04:16:45;;;;;;;10.80;7.83;;;;;;;3.95;55.91;103770.97;2098788;28;20179;-68
2022/03/18 04:17:48;;;;;;;12.00;8.57;;;;;;;3.46;57.05;103686.00;2098733;28;20183;-68
2022/03/18 04:18:49;;;;;;;12.57;8.52;;;;;;;3.17;56.47;103642.56;2098576;28;20183;-68
2022/03/18 04:19:49;;;;;;;11.35;8.20;;;;;;;3.92;57.09;103774.31;2100261;28;20207;-68
2022/03/18 04:20:50;;;;;;;12.67;8.70;;;;;;;4.00;57.11;103790.84;2106954;28;20227;-68
2022/03/18 04:21:50;;;;;;;11.50;8.33;;;;;;;3.87;57.62;103775.25;2107128;28;20191;-68
2022/03/18 04:22:51;;;;;;;11.43;8.20;;;;;;;3.94;55.75;103792.09;2106953;28;20187;-68
2022/03/18 04:23:52;;;;;;;11.15;7.93;;;;;;;2.42;55.77;103562.09;2106591;28;20175;-68
2022/03/18 04:24:52;;;;;;;10.90;7.63;;;;;;;3.84;55.33;103789.59;2107070;28;20183;-68
2022/03/18 04:25:53;;;;;;;11.73;8.30;;;;;;;3.78;54.85;103793.59;2107039;28;20461;-68
2022/03/18 04:26:53;;;;;;;12.13;8.47;;;;;;;3.70;55.40;103785.28;2107029;28;20653;-68
2022/03/18 04:27:54;;;;;;;11.00;8.40;;;;;;;3.75;57.36;103796.94;2106781;28;20185;-68
2022/03/18 04:28:54;;;;;;;10.73;8.50;;;;;;;3.74;56.83;103800.00;2106990;28;20553;-68
2022/03/18 04:29:55;;;;;;;11.73;8.60;;;;;;;3.04;57.25;103694.69;2106872;28;20175;-68
2022/03/18 04:30:55;;;;;;;11.80;8.70;;;;;;;3.73;56.50;103795.63;2107062;28;20183;-68
2022/03/18 04:31:57;;;;;;;11.93;8.37;;;;;;;3.48;57.24;103758.63;2106829;28;20591;-68
2022/03/18 04:32:57;;;;;;;11.80;8.40;;;;;;;3.69;56.19;103794.63;2106783;28;20193;-68
2022/03/18 04:33:58;;;;;;;11.63;8.53;;;;;;;3.70;56.89;103799.00;2106636;28;20599;-68
2022/03/18 04:34:58;;;;;;;9.77;7.90;;;;;;;3.71;56.21;103795.13;2107060;28;20176;-68
2022/03/18 04:35:59;;;;;;;12.20;8.63;;;;;;;3.69;56.28;103794.63;2106876;28;20188;-68
2022/03/18 04:36:59;;;;;;;10.87;8.63;;;;;;;3.70;56.88;103799.78;2106686;28;20223;-68
2022/03/18 04:38:00;;;;;;;13.17;8.10;;;;;;;3.71;56.80;103795.13;2106876;28;20610;-68
2022/03/18 04:39:01;;;;;;;11.18;8.15;;;;;;;3.71;56.85;103800.59;2106796;28;20185;-68
2022/03/18 04:40:03;;;;;;;13.47;8.73;;;;;;;3.60;57.10;103789.06;2106811;28;20210;-68
2022/03/18 04:41:03;;;;;;;10.93;8.52;;;;;;;3.70;57.50;103797.03;2106945;28;20172;-68
2022/03/18 04:42:04;;;;;;;14.80;8.37;;;;;;;3.70;56.21;103799.00;2106591;28;20203;-68
2022/03/18 04:43:05;;;;;;;14.30;9.20;;;;;;;3.71;55.49;103826.13;2106361;28;20176;-68
2022/03/18 04:44:05;;;;;;;10.60;8.40;;;;;;;3.07;56.51;103697.59;2106187;28;20598;-68
2022/03/18 04:45:06;;;;;;;12.47;8.73;;;;;;;2.38;56.83;103595.88;2106550;28;20589;-68
2022/03/18 04:46:06;;;;;;;12.17;8.40;;;;;;;3.22;56.83;103735.63;2105950;28;20650;-68
2022/03/18 04:47:07;;;;;;;11.57;8.50;;;;;;;3.66;56.91;103806.22;2106164;28;20172;-68
2022/03/18 04:48:08;;;;;;;12.23;8.30;;;;;;;3.66;55.60;103804.28;2106666;28;20178;-68
2022/03/18 04:49:08;;;;;;;11.13;8.30;;;;;;;3.67;55.57;103805.91;2106718;28;20255;-68
2022/03/18 04:50:10;;;;;;;12.10;8.50;;;;;;;3.66;56.06;103798.00;2106591;28;20202;-68
2022/03/18 04:51:10;;;;;;;11.45;9.18;;;;;;;3.61;55.60;103800.84;2106804;28;20181;-68
2022/03/18 04:52:12;;;;;;;11.57;8.67;;;;;;;3.62;56.32;103800.53;2106652;28;20174;-68